Time;durP1;ratioP1;P1;durP2;ratioP2;P2;SDS_P1;SDS_P2;PMS_P1;PMS_P2;Temp;Humidity;BMP_temperature;BMP_pressure;BME280_temperature;BME280_humidity;BME280_pressure;Samples;Min_cycle;Max_cycle;Signal;HPM_P1;HPM_P2
2023/05/03 00:00:42;;;;;;;31.33;29.73;;;;;;;18.95;39.69;102776.69;4977424;28;20062;-69
2023/05/03 00:03:08;;;;;;;;;;;;;;;18.91;39.81;102772.81;4995044;28;20081;-71
2023/05/03 00:05:33;;;;;;;32.17;30.48;;;;;;;18.85;39.81;102774.66;4994686;28;19914;-70
2023/05/03 00:07:59;;;;;;;30.25;28.80;;;;;;;18.84;40.03;102777.63;4994632;28;20026;-68
2023/05/03 00:10:25;;;;;;;35.17;33.20;;;;;;;18.79;39.61;102773.72;4994466;28;20023;-69
2023/05/03 00:12:50;;;;;;;31.00;29.40;;;;;;;18.77;39.54;102777.78;4994454;28;20042;-68
2023/05/03 00:15:16;;;;;;;32.35;30.65;;;;;;;18.75;39.89;102780.78;4993693;28;20030;-68
2023/05/03 00:17:41;;;;;;;32.22;30.45;;;;;;;18.73;39.67;102784.81;4976992;28;20462;-68
2023/05/03 00:20:07;;;;;;;31.50;29.80;;;;;;;18.71;39.70;102789.69;4994894;28;20479;-69
2023/05/03 00:22:33;;;;;;;31.40;29.73;;;;;;;18.67;39.73;102775.69;4994007;28;20026;-70
2023/05/03 00:24:59;;;;;;;30.67;29.08;;;;;;;18.66;39.99;102778.66;4994090;28;20038;-67
2023/05/03 00:27:24;;;;;;;31.05;29.40;;;;;;;18.64;39.75;102786.28;4994450;28;20034;-67
2023/05/03 00:29:53;;;;;;;30.88;29.27;;;;;;;18.60;40.09;102784.06;4994335;28;20029;-69
2023/05/03 00:32:19;;;;;;;;;;;;;;;18.56;39.76;102784.78;4994867;28;20048;-69
2023/05/03 00:34:44;;;;;;;29.40;27.77;;;;;;;18.51;39.81;102779.22;4994192;28;20345;-69
2023/05/03 00:37:10;;;;;;;30.80;29.17;;;;;;;18.47;39.65;102778.91;4994187;28;20030;-69
2023/05/03 00:39:35;;;;;;;30.08;28.58;;;;;;;18.46;39.73;102773.66;4994437;28;20073;-69
2023/05/03 00:42:02;;;;;;;32.42;30.63;;;;;;;18.43;39.76;102771.44;4994081;28;20108;-68
2023/05/03 00:44:28;;;;;;;33.63;31.80;;;;;;;18.41;39.86;102781.78;4993948;28;20061;-69
2023/05/03 00:46:55;;;;;;;30.70;29.00;;;;;;;18.39;40.08;102771.06;4994099;28;20491;-69
2023/05/03 00:49:23;;;;;;;30.00;28.40;;;;;;;18.35;40.15;102770.75;4994178;28;20022;-69
2023/05/03 00:51:50;;;;;;;29.48;27.98;;;;;;;18.33;40.29;102764.69;4994058;28;20030;-68
2023/05/03 00:54:16;;;;;;;30.38;28.75;;;;;;;18.30;40.01;102764.34;4993838;28;20066;-69
2023/05/03 00:56:42;;;;;;;29.88;28.10;;;;;;;18.29;39.96;102768.16;4994726;28;20062;-69
2023/05/03 00:59:07;;;;;;;29.58;27.98;;;;;;;18.26;40.05;102757.69;4993975;28;20455;-69
2023/05/03 01:01:33;;;;;;;31.83;29.90;;;;;;;18.24;39.65;102762.59;4994112;28;20031;-69
2023/05/03 01:04:03;;;;;;;29.77;28.27;;;;;;;18.21;39.98;102765.81;4994114;28;20049;-69
2023/05/03 01:06:58;;;;;;;30.27;28.63;;;;;;;18.16;40.05;102761.91;4993868;28;20037;-69
2023/05/03 01:09:38;;;;;;;30.50;28.80;;;;;;;18.12;40.04;102755.28;4994099;28;20113;-69
2023/05/03 01:12:13;;;;;;;30.73;29.13;;;;;;;18.09;39.98;102757.66;4994022;28;20378;-69
2023/05/03 01:14:53;;;;;;;28.85;27.35;;;;;;;18.08;39.74;102761.47;4993840;28;20113;-69
2023/05/03 01:17:26;;;;;;;29.23;27.73;;;;;;;18.04;39.74;102771.22;4977176;28;20467;-69
2023/05/03 01:19:57;;;;;;;29.25;27.75;;;;;;;18.02;40.02;102770.66;4993778;28;20470;-69
2023/05/03 01:22:31;;;;;;;31.00;29.30;;;;;;;17.99;39.80;102769.22;4994147;28;20356;-69
2023/05/03 01:25:16;;;;;;;29.95;28.13;;;;;;;17.95;40.24;102771.63;4993827;28;20026;-68
2023/05/03 01:27:42;;;;;;;30.10;28.60;;;;;;;17.94;40.05;102774.59;4997815;28;20470;-68
2023/05/03 01:30:09;;;;;;;31.52;29.83;;;;;;;17.92;40.40;102776.75;4998140;28;20041;-68
2023/05/03 01:33:03;;;;;;;32.55;30.60;;;;;;;17.88;40.02;102779.13;4997421;28;20030;-69
2023/05/03 01:35:37;;;;;;;31.42;29.42;;;;;;;17.83;40.03;102772.72;4997472;28;20478;-69
2023/05/03 01:38:03;;;;;;;28.48;26.67;;;;;;;17.80;40.00;102768.56;4997775;28;20034;-69
2023/05/03 01:40:32;;;;;;;30.48;28.88;;;;;;;17.79;39.98;102771.50;4997564;28;20534;-69
2023/05/03 01:42:58;;;;;;;28.27;26.88;;;;;;;17.77;40.05;102779.16;4998112;28;20379;-69
2023/05/03 01:45:25;;;;;;;29.70;28.10;;;;;;;17.74;40.14;102775.81;4996972;28;20031;-69
2023/05/03 01:47:50;;;;;;;28.83;27.27;;;;;;;17.72;40.16;102772.50;4980053;28;20413;-68
2023/05/03 01:50:16;;;;;;;29.38;27.92;;;;;;;17.70;40.31;102773.81;4997308;28;20039;-68
2023/05/03 01:52:43;;;;;;;29.90;28.30;;;;;;;17.67;39.98;102772.38;4997587;28;20038;-69
2023/05/03 01:55:09;;;;;;;29.92;28.42;;;;;;;17.65;40.18;102766.31;4997123;28;20034;-68
2023/05/03 01:57:34;;;;;;;32.00;30.05;;;;;;;17.63;40.36;102775.84;4997049;28;20037;-69
2023/05/03 02:00:00;;;;;;;29.30;27.73;;;;;;;17.60;40.35;102768.94;4997321;28;20529;-69
2023/05/03 02:02:25;;;;;;;29.75;28.15;;;;;;;17.58;40.13;102768.34;4996973;28;20045;-69
2023/05/03 02:04:50;;;;;;;28.65;27.17;;;;;;;17.55;40.12;102770.75;4979466;28;20030;-70
2023/05/03 02:07:16;;;;;;;28.33;26.88;;;;;;;17.52;40.19;102763.84;4997483;28;20030;-69
2023/05/03 02:09:41;;;;;;;27.95;26.15;;;;;;;17.49;40.17;102762.44;4997134;28;20057;-68
2023/05/03 02:12:07;;;;;;;28.98;27.52;;;;;;;17.47;39.94;102755.56;4979355;28;20458;-70
2023/05/03 02:14:32;;;;;;;29.88;28.17;;;;;;;17.46;40.37;102753.88;4996451;28;20490;-68
2023/05/03 02:16:59;;;;;;;27.70;26.30;;;;;;;17.42;40.31;102753.53;4997557;28;20033;-68
2023/05/03 02:19:24;;;;;;;29.30;27.80;;;;;;;17.40;40.02;102743.91;4996753;28;20080;-69
2023/05/03 02:21:50;;;;;;;29.05;27.55;;;;;;;17.38;40.20;102737.84;4996646;28;20078;-68
2023/05/03 02:24:15;;;;;;;28.13;26.52;;;;;;;17.36;40.26;102738.13;4996929;28;20030;-68
2023/05/03 02:26:41;;;;;;;28.63;27.02;;;;;;;17.33;40.49;102718.63;4996550;28;20072;-69
2023/05/03 02:29:06;;;;;;;28.40;26.90;;;;;;;17.31;40.04;102727.03;4996808;28;20058;-68
2023/05/03 02:31:32;;;;;;;28.40;26.80;;;;;;;17.28;40.39;102719.34;4996456;28;20027;-68
2023/05/03 02:33:57;;;;;;;29.08;27.25;;;;;;;17.25;40.35;102715.19;4996405;28;20118;-68
2023/05/03 02:36:23;;;;;;;29.30;27.80;;;;;;;17.23;40.21;102711.84;4996333;28;20058;-69
2023/05/03 02:38:48;;;;;;;28.75;26.92;;;;;;;17.21;40.28;102704.97;4995853;28;20041;-69
2023/05/03 02:41:14;;;;;;;28.83;27.08;;;;;;;17.19;40.16;102707.13;4996369;28;20121;-69
2023/05/03 02:43:39;;;;;;;29.80;28.10;;;;;;;17.16;40.54;102711.19;4978772;28;20467;-69
2023/05/03 02:46:05;;;;;;;26.40;25.00;;;;;;;17.14;40.18;102716.03;4996487;28;20042;-69
2023/05/03 02:48:30;;;;;;;29.27;27.45;;;;;;;17.11;40.54;102721.97;4996167;28;20034;-69
2023/05/03 02:50:55;;;;;;;26.27;24.88;;;;;;;17.09;40.45;102732.31;4996223;28;20034;-69
2023/05/03 02:53:21;;;;;;;28.33;26.80;;;;;;;17.06;40.37;102735.53;4995786;28;20066;-68
2023/05/03 02:55:46;;;;;;;27.42;25.85;;;;;;;17.04;40.06;102734.91;4995987;28;20026;-68
2023/05/03 02:58:12;;;;;;;27.75;26.30;;;;;;;17.02;40.27;102737.88;4995948;28;20068;-70
2023/05/03 03:00:37;;;;;;;29.60;27.77;;;;;;;17.00;40.28;102731.00;4996459;28;20042;-69
2023/05/03 03:03:03;;;;;;;27.52;26.13;;;;;;;16.98;40.29;102733.13;4995657;28;20482;-68
2023/05/03 03:05:28;;;;;;;28.50;27.00;;;;;;;16.96;40.34;102732.53;4995865;28;20091;-70
2023/05/03 03:07:54;;;;;;;28.50;26.90;;;;;;;16.93;40.34;102727.53;4995782;28;20130;-68
2023/05/03 03:10:19;;;;;;;28.80;27.20;;;;;;;16.91;40.40;102732.41;4995835;28;20030;-69
2023/05/03 03:12:45;;;;;;;29.42;27.83;;;;;;;16.87;40.56;102734.78;4995562;28;20062;-69
2023/05/03 03:15:10;;;;;;;27.02;25.63;;;;;;;16.85;40.42;102732.28;4996089;28;20486;-68
2023/05/03 03:17:38;;;;;;;27.98;26.48;;;;;;;16.83;40.44;102741.78;4995568;28;20038;-68
2023/05/03 03:20:10;;;;;;;26.90;25.40;;;;;;;16.81;40.45;102735.75;4978506;28;20376;-69
2023/05/03 03:22:36;;;;;;;32.00;30.13;;;;;;;16.78;40.32;102723.41;4995764;28;20173;-70
2023/05/03 03:25:01;;;;;;;26.83;25.38;;;;;;;16.76;40.28;102727.41;4995463;28;20451;-67
2023/05/03 03:27:26;;;;;;;27.33;25.92;;;;;;;16.74;40.53;102724.06;4995481;28;20034;-68
2023/05/03 03:29:52;;;;;;;27.70;26.20;;;;;;;16.71;40.57;102728.09;4995405;28;20031;-69
2023/05/03 03:32:17;;;;;;;26.90;25.50;;;;;;;16.69;40.52;102729.41;4978301;28;20042;-69
2023/05/03 03:34:43;;;;;;;28.00;26.40;;;;;;;16.66;40.41;102731.53;4995545;28;20072;-69
2023/05/03 03:37:08;;;;;;;27.13;25.63;;;;;;;16.64;40.33;102730.94;4995046;28;20606;-69
2023/05/03 03:39:33;;;;;;;28.45;26.80;;;;;;;16.61;40.55;102731.41;4995175;28;20093;-69
2023/05/03 03:41:59;;;;;;;26.17;24.77;;;;;;;16.59;40.33;102736.25;4995504;28;20121;-71
2023/05/03 03:44:24;;;;;;;28.17;26.58;;;;;;;16.57;40.50;102746.56;4995097;28;20096;-69
2023/05/03 03:46:50;;;;;;;25.65;24.35;;;;;;;16.56;40.49;102746.81;4995337;28;20049;-69
2023/05/03 03:49:15;;;;;;;27.20;25.60;;;;;;;16.53;40.28;102747.28;4994936;28;20375;-69
2023/05/03 03:51:41;;;;;;;28.30;26.73;;;;;;;16.51;40.33;102747.53;4994924;28;20383;-70
2023/05/03 03:54:06;;;;;;;26.73;25.40;;;;;;;16.49;40.48;102746.91;4978369;28;20109;-69
2023/05/03 03:56:31;;;;;;;27.30;25.70;;;;;;;16.47;40.36;102748.22;4995123;28;20383;-71
2023/05/03 03:58:57;;;;;;;25.92;24.48;;;;;;;16.45;40.30;102745.72;4995409;28;20026;-69
2023/05/03 04:01:22;;;;;;;25.50;24.20;;;;;;;16.42;40.78;102746.19;4994865;28;20046;-68
2023/05/03 04:03:48;;;;;;;27.55;26.05;;;;;;;16.40;40.55;102751.88;4995232;28;20042;-69
2023/05/03 04:06:13;;;;;;;25.67;24.27;;;;;;;16.38;40.47;102751.28;4994405;28;20471;-68
2023/05/03 04:08:39;;;;;;;28.33;26.65;;;;;;;16.36;40.61;102744.41;4994647;28;20038;-69
2023/05/03 04:11:11;;;;;;;25.20;23.90;;;;;;;16.34;40.54;102749.25;4994697;28;20487;-70
2023/05/03 04:13:36;;;;;;;25.40;24.05;;;;;;;16.32;40.62;102752.19;4994522;28;20497;-69
2023/05/03 04:16:02;;;;;;;25.52;24.23;;;;;;;16.30;40.60;102750.78;4994560;28;20035;-69
2023/05/03 04:18:27;;;;;;;28.20;26.73;;;;;;;16.28;40.66;102753.75;4994664;28;20035;-69
2023/05/03 04:20:53;;;;;;;25.48;24.17;;;;;;;16.26;40.44;102763.22;4994737;28;20034;-68
2023/05/03 04:23:18;;;;;;;24.90;23.70;;;;;;;16.22;40.58;102752.75;4994453;28;20194;-68
2023/05/03 04:25:47;;;;;;;25.00;23.60;;;;;;;16.21;40.65;102758.47;4994379;28;20122;-70
2023/05/03 04:28:13;;;;;;;;;;;;;;;16.17;40.63;102759.97;4994739;28;20038;-68
2023/05/03 04:30:40;;;;;;;26.23;24.70;;;;;;;16.14;40.61;102765.91;4994166;28;19918;-68
2023/05/03 04:33:06;;;;;;;26.63;25.23;;;;;;;16.10;40.45;102776.44;4994212;28;20022;-68
2023/05/03 04:35:31;;;;;;;25.92;24.10;;;;;;;16.11;40.42;102771.81;4994509;28;20464;-68
2023/05/03 04:37:56;;;;;;;26.38;24.98;;;;;;;16.08;40.51;102777.72;4994170;28;20061;-69
2023/05/03 04:40:22;;;;;;;25.08;23.77;;;;;;;16.07;40.55;102781.50;4994243;28;20034;-69
2023/05/03 04:42:47;;;;;;;26.77;25.27;;;;;;;16.05;40.42;102789.06;4994522;28;20070;-69
2023/05/03 04:45:13;;;;;;;25.40;23.92;;;;;;;16.04;40.57;102795.59;4994426;28;20455;-68
2023/05/03 04:47:39;;;;;;;24.95;23.60;;;;;;;16.01;40.55;102797.72;4993632;28;20034;-68
2023/05/03 04:50:07;;;;;;;24.67;23.38;;;;;;;16.01;40.67;102805.06;4993862;28;20036;-69
2023/05/03 04:52:33;;;;;;;25.10;23.80;;;;;;;16.00;40.73;102809.69;4993658;28;20027;-69
2023/05/03 04:54:59;;;;;;;25.45;24.15;;;;;;;15.97;40.69;102810.13;4993969;28;20102;-68
2023/05/03 04:57:24;;;;;;;26.15;24.65;;;;;;;15.96;40.51;102808.47;4976564;28;20478;-68
2023/05/03 04:59:51;;;;;;;26.08;24.48;;;;;;;15.94;40.72;102809.75;4994556;28;20118;-68
2023/05/03 05:02:17;;;;;;;25.55;24.17;;;;;;;15.95;40.54;102814.13;5000048;28;20041;-68
2023/05/03 05:04:43;;;;;;;26.25;24.67;;;;;;;15.93;40.67;102811.66;4983615;28;20030;-68
2023/05/03 05:07:08;;;;;;;24.67;23.33;;;;;;;15.91;40.80;102804.78;5000639;28;20034;-68
2023/05/03 05:09:33;;;;;;;24.88;23.48;;;;;;;15.90;40.86;102801.22;5000398;28;20061;-68
2023/05/03 05:11:59;;;;;;;26.10;24.60;;;;;;;15.89;40.81;102805.00;4983001;28;20039;-69
2023/05/03 05:14:30;;;;;;;26.10;24.60;;;;;;;15.88;40.67;102797.06;5000071;28;20030;-69
2023/05/03 05:16:55;;;;;;;26.15;24.65;;;;;;;15.87;40.56;102809.84;5000077;28;20076;-68
2023/05/03 05:19:21;;;;;;;24.58;23.27;;;;;;;15.85;40.53;102801.06;5000191;28;20058;-69
2023/05/03 05:21:47;;;;;;;26.02;24.52;;;;;;;15.86;40.94;102797.28;5000564;28;20134;-68
2023/05/03 05:24:12;;;;;;;25.25;23.67;;;;;;;15.83;40.71;102803.19;5000193;28;20038;-70
2023/05/03 05:26:38;;;;;;;25.17;23.67;;;;;;;15.81;40.64;102802.56;4983131;28;20065;-69
2023/05/03 05:29:03;;;;;;;24.80;23.35;;;;;;;15.79;40.63;102802.78;5000182;28;20045;-68
2023/05/03 05:31:29;;;;;;;25.70;24.15;;;;;;;15.78;40.58;102797.59;5000445;28;20441;-68
2023/05/03 05:33:54;;;;;;;26.50;24.80;;;;;;;15.78;40.56;102800.31;5000082;28;20031;-68
2023/05/03 05:36:19;;;;;;;26.15;24.48;;;;;;;15.75;40.52;102798.06;5000245;28;20040;-69
2023/05/03 05:38:45;;;;;;;27.65;25.98;;;;;;;15.74;40.59;102805.38;5000085;28;20038;-68
2023/05/03 05:41:10;;;;;;;24.42;23.15;;;;;;;15.74;40.39;102807.28;4982339;28;20042;-69
2023/05/03 05:43:36;;;;;;;26.83;25.33;;;;;;;15.72;40.61;102803.94;4982429;28;20034;-68
2023/05/03 05:46:02;;;;;;;25.02;23.52;;;;;;;15.71;40.43;102808.56;4982799;28;20113;-68
2023/05/03 05:48:27;;;;;;;26.73;25.23;;;;;;;15.70;40.48;102806.03;5000355;28;20488;-68
2023/05/03 05:50:53;;;;;;;26.38;24.75;;;;;;;15.70;40.72;102809.63;4982093;28;20034;-67
2023/05/03 05:53:18;;;;;;;25.58;24.05;;;;;;;15.70;40.55;102811.50;4999404;28;20129;-68
2023/05/03 05:55:44;;;;;;;25.08;23.58;;;;;;;15.70;40.78;102811.50;4982147;28;20061;-68
2023/05/03 05:58:11;;;;;;;24.88;23.48;;;;;;;15.68;40.78;102803.53;4999536;28;20104;-68
2023/05/03 06:00:37;;;;;;;25.13;23.63;;;;;;;15.67;40.50;102798.28;4999627;28;20085;-68
2023/05/03 06:03:02;;;;;;;27.08;25.50;;;;;;;15.66;40.50;102805.66;4999330;28;20034;-67
2023/05/03 06:05:28;;;;;;;25.85;24.25;;;;;;;15.64;40.65;102805.03;4999467;28;20069;-68
2023/05/03 06:07:53;;;;;;;27.25;25.58;;;;;;;15.63;40.47;102806.09;4982676;28;20030;-68
2023/05/03 06:10:18;;;;;;;27.52;25.63;;;;;;;15.62;40.67;102807.16;4982709;28;20103;-70
2023/05/03 06:12:44;;;;;;;24.90;23.58;;;;;;;15.62;40.82;102811.75;4997611;28;20391;-69
2023/05/03 06:15:09;;;;;;;23.92;22.73;;;;;;;15.62;40.72;102817.22;4979223;28;20046;-69
2023/05/03 06:17:35;;;;;;;26.23;24.77;;;;;;;15.62;40.67;102806.31;4996775;28;20042;-70
2023/05/03 06:20:01;;;;;;;26.15;24.65;;;;;;;15.63;40.45;102808.00;4979048;28;20079;-68
2023/05/03 06:22:26;;;;;;;24.10;22.80;;;;;;;15.63;40.64;102800.66;4996324;28;20432;-69
2023/05/03 06:24:51;;;;;;;26.35;24.65;;;;;;;15.63;40.52;102795.22;4979284;28;20041;-68
2023/05/03 06:27:17;;;;;;;25.77;24.27;;;;;;;15.63;40.35;102797.09;4996170;28;20430;-70
2023/05/03 06:29:43;;;;;;;27.63;26.02;;;;;;;15.62;40.48;102801.69;4995954;28;20510;-68
2023/05/03 06:32:09;;;;;;;25.25;23.67;;;;;;;15.62;40.69;102792.69;4996362;28;20031;-68
2023/05/03 06:34:35;;;;;;;25.95;23.98;;;;;;;15.63;40.49;102788.94;4996094;28;20045;-68
2023/05/03 06:37:01;;;;;;;26.45;24.90;;;;;;;15.62;40.65;102789.97;4996057;28;20493;-70
2023/05/03 06:39:27;;;;;;;27.75;26.05;;;;;;;15.62;40.95;102792.69;4995752;28;20063;-76
2023/05/03 06:41:52;;;;;;;28.17;26.30;;;;;;;15.62;40.93;102793.53;4995954;28;20434;-71
2023/05/03 06:44:18;;;;;;;26.92;25.33;;;;;;;15.63;40.83;102780.75;4996072;28;20030;-68
2023/05/03 06:46:43;;;;;;;24.65;23.35;;;;;;;15.63;41.07;102778.88;4978686;28;20038;-71
2023/05/03 06:49:08;;;;;;;25.70;24.10;;;;;;;15.65;40.96;102784.91;4996051;28;20526;-69
2023/05/03 06:51:34;;;;;;;23.58;22.33;;;;;;;15.66;41.14;102788.47;4978224;28;20486;-69
2023/05/03 06:54:05;;;;;;;26.52;24.80;;;;;;;15.65;40.80;102793.09;4995707;28;20070;-68
2023/05/03 06:56:34;;;;;;;26.00;24.58;;;;;;;15.67;41.10;102796.41;4995726;28;20034;-70
2023/05/03 06:59:00;;;;;;;26.65;25.15;;;;;;;15.68;40.86;102799.97;4995701;28;20030;-69
2023/05/03 07:01:26;;;;;;;25.58;23.83;;;;;;;15.70;41.16;102803.31;4995711;28;20030;-69
2023/05/03 07:03:52;;;;;;;26.33;24.90;;;;;;;15.73;41.00;102800.16;4995614;28;20037;-70
2023/05/03 07:06:17;;;;;;;26.17;24.77;;;;;;;15.74;40.94;102793.66;4995843;28;20038;-72
2023/05/03 07:08:43;;;;;;;24.65;23.23;;;;;;;15.75;41.43;102785.25;4995843;28;20026;-67
2023/05/03 07:11:09;;;;;;;27.08;25.15;;;;;;;15.79;41.22;102791.91;4978028;28;20041;-73
2023/05/03 07:13:34;;;;;;;26.30;24.48;;;;;;;15.81;41.05;102793.56;4996008;28;20130;-74
2023/05/03 07:16:00;;;;;;;26.50;24.75;;;;;;;15.81;41.32;102791.69;4995561;28;20459;-69
2023/05/03 07:18:25;;;;;;;25.60;23.85;;;;;;;15.84;41.10;102788.50;4994980;28;20463;-70
2023/05/03 07:20:51;;;;;;;26.35;24.65;;;;;;;15.87;41.11;102790.75;4995462;28;20382;-71
2023/05/03 07:23:17;;;;;;;25.90;24.42;;;;;;;15.91;41.39;102796.59;4995021;28;20106;-69
2023/05/03 07:25:43;;;;;;;23.98;22.70;;;;;;;15.94;41.55;102787.97;4995246;28;20034;-70
2023/05/03 07:28:09;;;;;;;26.88;25.27;;;;;;;15.97;41.70;102777.41;4977691;28;20116;-70
2023/05/03 07:30:34;;;;;;;27.58;25.67;;;;;;;16.02;41.90;102783.00;4995219;28;20066;-71
2023/05/03 07:33:00;;;;;;;26.67;25.08;;;;;;;16.04;41.50;102782.78;4977215;28;20386;-71
2023/05/03 07:35:28;;;;;;;26.98;25.20;;;;;;;16.08;42.00;102777.72;4994993;28;20038;-71
2023/05/03 07:37:53;;;;;;;25.50;23.90;;;;;;;16.10;41.84;102779.16;4977831;28;20035;-72
2023/05/03 07:40:19;;;;;;;26.33;24.90;;;;;;;16.15;42.25;102773.00;4977537;28;20041;-75
2023/05/03 07:42:45;;;;;;;25.83;24.02;;;;;;;16.19;42.16;102766.84;4977687;28;20054;-72
2023/05/03 07:45:11;;;;;;;26.30;24.73;;;;;;;16.25;42.37;102762.38;4994601;28;20117;-71
2023/05/03 07:47:38;;;;;;;27.88;26.08;;;;;;;16.30;42.25;102759.78;4994341;28;20034;-70
2023/05/03 07:50:04;;;;;;;27.08;25.58;;;;;;;16.34;42.45;102755.53;4994753;28;20049;-72
2023/05/03 07:52:35;;;;;;;25.58;23.98;;;;;;;16.40;42.29;102760.06;4994444;28;20054;-75
2023/05/03 07:55:02;;;;;;;27.98;26.27;;;;;;;16.47;42.46;102757.22;4977103;28;20454;-70
2023/05/03 07:57:27;;;;;;;28.75;27.05;;;;;;;16.51;42.38;102743.97;4994336;28;20038;-72
2023/05/03 07:59:53;;;;;;;26.17;24.60;;;;;;;16.57;42.30;102735.66;4994449;28;20460;-72
2023/05/03 08:02:18;;;;;;;26.63;24.85;;;;;;;16.62;42.20;102734.97;4994678;28;20069;-74
2023/05/03 08:04:43;;;;;;;25.70;24.30;;;;;;;16.69;42.36;102734.88;4994462;28;20058;-70
2023/05/03 08:07:09;;;;;;;29.02;27.30;;;;;;;16.75;42.51;102731.19;4994434;28;20454;-72
2023/05/03 08:09:35;;;;;;;29.80;27.35;;;;;;;16.81;42.95;102735.75;4977016;28;20042;-70
2023/05/03 08:12:02;;;;;;;28.25;26.60;;;;;;;16.87;42.67;102729.34;4994053;28;20364;-70
2023/05/03 08:14:27;;;;;;;28.88;27.25;;;;;;;16.94;42.56;102731.97;4994458;28;20037;-71
2023/05/03 08:16:52;;;;;;;28.70;27.10;;;;;;;16.99;42.10;102726.63;4994410;28;20487;-72
2023/05/03 08:19:18;;;;;;;27.83;26.23;;;;;;;17.04;42.41;102708.44;4960162;28;20410;-70
2023/05/03 08:21:45;;;;;;;27.75;25.98;;;;;;;17.10;42.47;102714.84;4994076;28;20431;-70
2023/05/03 08:24:12;;;;;;;26.08;24.58;;;;;;;17.17;42.50;102714.72;4994031;28;20502;-70
2023/05/03 08:26:39;;;;;;;27.55;25.90;;;;;;;17.23;42.33;102708.31;4993824;28;20046;-75
2023/05/03 08:29:04;;;;;;;29.17;27.48;;;;;;;17.31;42.43;102716.13;4994210;28;20371;-70
2023/05/03 08:31:30;;;;;;;29.73;27.98;;;;;;;17.37;42.63;102726.09;4993890;28;20030;-70
2023/05/03 08:33:55;;;;;;;29.85;28.30;;;;;;;17.43;42.67;102724.31;4976673;28;20062;-70
2023/05/03 08:36:21;;;;;;;29.58;28.00;;;;;;;17.48;42.81;102738.91;4993246;28;20030;-70
2023/05/03 08:38:47;;;;;;;29.98;28.40;;;;;;;17.57;43.07;102739.38;4993784;28;20469;-69
2023/05/03 08:41:36;;;;;;;30.10;28.30;;;;;;;17.65;42.61;102739.00;4976269;28;20593;-72
2023/05/03 08:44:04;;;;;;;30.08;28.30;;;;;;;17.73;42.85;102735.88;4993325;28;20129;-73
2023/05/03 08:46:29;;;;;;;32.92;30.88;;;;;;;17.81;43.03;102736.59;4976310;28;20065;-70
2023/05/03 08:48:55;;;;;;;29.48;27.58;;;;;;;17.88;42.63;102734.56;4994143;28;20427;-72
2023/05/03 08:51:22;;;;;;;30.45;28.60;;;;;;;17.94;42.68;102736.31;4993642;28;20390;-68
2023/05/03 08:53:48;;;;;;;31.33;29.55;;;;;;;18.03;42.84;102739.50;4993518;28;20038;-69
2023/05/03 08:56:24;;;;;;;33.60;31.45;;;;;;;18.11;42.58;102726.25;4993135;28;20434;-72
2023/05/03 08:58:50;;;;;;;32.00;30.10;;;;;;;18.19;42.68;102726.94;4993644;28;20057;-71
2023/05/03 09:01:15;;;;;;;31.65;29.83;;;;;;;18.26;42.71;102730.34;4993933;28;20034;-69
2023/05/03 09:03:48;;;;;;;34.25;32.13;;;;;;;18.34;42.77;102719.84;4993498;28;20551;-72
2023/05/03 09:06:24;;;;;;;32.70;30.90;;;;;;;18.44;42.78;102729.28;4993538;28;20030;-71
2023/05/03 09:08:50;;;;;;;32.58;30.15;;;;;;;18.50;42.92;102723.66;4994201;28;20463;-71
2023/05/03 09:11:26;;;;;;;32.30;30.30;;;;;;;18.58;42.90;102723.25;4993437;28;20089;-70
2023/05/03 09:13:52;;;;;;;31.55;29.85;;;;;;;18.66;42.32;102727.47;4994169;28;20022;-69
2023/05/03 09:16:28;;;;;;;33.60;31.58;;;;;;;18.73;42.62;102727.31;4993187;28;20442;-69
2023/05/03 09:18:58;;;;;;;31.23;29.45;;;;;;;18.80;43.06;102726.09;4993718;28;20482;-70
2023/05/03 09:21:24;;;;;;;31.58;30.00;;;;;;;18.88;42.55;102738.53;4992953;28;20442;-71
2023/05/03 09:23:49;;;;;;;31.48;29.77;;;;;;;18.97;42.45;102739.75;4993667;28;20125;-69
2023/05/03 09:26:31;;;;;;;33.53;31.63;;;;;;;19.04;42.38;102734.13;4993621;28;20039;-69
2023/05/03 09:29:00;;;;;;;33.13;31.23;;;;;;;19.12;42.82;102725.47;4993142;28;20034;-69
2023/05/03 09:31:30;;;;;;;35.55;33.53;;;;;;;19.18;42.28;102716.25;4976161;28;20462;-71
2023/05/03 09:33:56;;;;;;;32.15;30.55;;;;;;;19.26;42.35;102716.91;4993802;28;20543;-70
2023/05/03 09:36:23;;;;;;;34.42;32.08;;;;;;;19.33;42.83;102720.31;4993309;28;20062;-70
2023/05/03 09:38:50;;;;;;;34.85;32.88;;;;;;;19.41;42.34;102719.84;4993398;28;20035;-69
2023/05/03 09:41:29;;;;;;;36.42;34.33;;;;;;;19.48;42.25;102720.50;4993181;28;20034;-70
2023/05/03 09:43:55;;;;;;;35.42;33.35;;;;;;;19.56;42.63;102711.81;4993256;28;20038;-68
2023/05/03 09:46:26;;;;;;;36.85;34.28;;;;;;;19.64;42.47;102713.28;4994012;28;20039;-71
2023/05/03 09:48:54;;;;;;;35.75;33.85;;;;;;;19.71;42.73;102718.63;4980302;28;20053;-68
2023/05/03 09:51:22;;;;;;;35.95;33.85;;;;;;;19.77;42.16;102720.31;4996966;28;20030;-69
2023/05/03 09:53:47;;;;;;;36.45;34.55;;;;;;;19.84;42.53;102712.72;4996744;28;20037;-69
2023/05/03 09:56:13;;;;;;;38.47;36.35;;;;;;;19.91;42.25;102709.75;4996772;28;20049;-70
2023/05/03 09:58:40;;;;;;;37.00;34.75;;;;;;;19.98;42.08;102715.88;4996530;28;20045;-70
2023/05/03 10:01:06;;;;;;;36.22;34.33;;;;;;;20.04;42.47;102715.69;4979354;28;20490;-71
2023/05/03 10:03:41;;;;;;;37.15;35.30;;;;;;;20.12;42.44;102716.31;4996572;28;20483;-70
2023/05/03 10:06:27;;;;;;;37.83;35.30;;;;;;;20.19;41.87;102711.44;4996983;28;20026;-70
2023/05/03 10:09:15;;;;;;;37.75;35.78;;;;;;;20.23;42.28;102710.63;4997246;28;20030;-68
2023/05/03 10:11:44;;;;;;;37.33;35.22;;;;;;;20.29;42.53;102709.63;4997405;28;20073;-71
2023/05/03 10:14:10;;;;;;;37.95;35.80;;;;;;;20.36;42.28;102716.78;4996400;28;20186;-71
2023/05/03 10:16:37;;;;;;;37.65;35.38;;;;;;;20.42;42.08;102718.50;4978880;28;20034;-69
2023/05/03 10:19:18;;;;;;;38.10;36.20;;;;;;;20.48;41.60;102717.44;4996527;28;20124;-70
2023/05/03 10:22:05;;;;;;;39.60;37.35;;;;;;;20.53;42.19;102707.34;4996594;28;20030;-71
2023/05/03 10:24:31;;;;;;;38.58;36.10;;;;;;;20.60;41.67;102709.09;4978711;28;20105;-72
2023/05/03 10:26:58;;;;;;;38.28;36.28;;;;;;;20.64;41.64;102718.47;4996345;28;20045;-69
2023/05/03 10:29:47;;;;;;;39.03;36.83;;;;;;;20.68;41.81;102705.84;4996210;28;20077;-71
2023/05/03 10:32:28;;;;;;;39.35;37.08;;;;;;;20.74;41.36;102713.88;4986480;28;20124;-72
2023/05/03 10:35:09;;;;;;;37.38;35.47;;;;;;;20.78;41.58;102708.66;4995942;28;20485;-68
2023/05/03 10:37:35;;;;;;;40.80;38.70;;;;;;;20.82;41.86;102698.00;4995755;28;20030;-71
2023/05/03 10:40:15;;;;;;;40.13;37.92;;;;;;;20.87;41.96;102707.09;4978300;28;20038;-70
2023/05/03 10:42:53;;;;;;;41.10;38.88;;;;;;;20.93;41.41;102703.25;4996378;28;20416;-72
2023/05/03 10:45:21;;;;;;;44.28;41.63;;;;;;;20.98;41.08;102696.16;4979060;28;20340;-69
2023/05/03 10:48:27;;;;;;;39.38;37.17;;;;;;;21.00;41.49;102689.31;4995947;28;20034;-71
2023/05/03 10:50:53;;;;;;;41.45;39.05;;;;;;;21.05;41.17;102692.09;4900673;29;20132;-69
2023/05/03 10:53:38;;;;;;;41.70;39.30;;;;;;;21.10;41.16;102691.28;4916420;29;20127;-69
2023/05/03 10:56:06;;;;;;;41.00;38.78;;;;;;;21.13;40.67;102691.56;4964599;28;20042;-70
2023/05/03 10:58:41;;;;;;;38.80;36.70;;;;;;;21.18;40.78;102693.53;4994604;28;20092;-70
2023/05/03 11:01:10;;;;;;;39.72;37.67;;;;;;;21.21;41.10;102678.41;4995917;28;20038;-70
2023/05/03 11:04:03;;;;;;;42.92;40.55;;;;;;;21.27;40.85;102683.69;4995381;28;20037;-70
2023/05/03 11:06:34;;;;;;;42.78;40.30;;;;;;;21.30;41.19;102674.91;4995945;28;20058;-70
2023/05/03 11:09:00;;;;;;;40.72;38.53;;;;;;;21.34;41.38;102675.16;4995641;28;20125;-69
2023/05/03 11:11:26;;;;;;;41.13;39.03;;;;;;;21.39;40.92;102681.56;4977864;28;20030;-70